METAR Data
IDs: Format: Raw Decoded Include TAF

Data at: 2152 UTC 01 Dec 2021

KPWT 012118Z AUTO 20015G22KT 10SM SCT007 12/11 A3012 RMK AO2